createdAt,value
2022-11-16T00:02:17.749Z,11.38
2022-11-16T00:04:44.860Z,11.13
2022-11-16T00:07:11.943Z,11.07
2022-11-16T00:09:39.101Z,11.73
2022-11-16T00:12:09.591Z,11.68
2022-11-16T00:14:36.739Z,11.10
2022-11-16T00:17:04.939Z,10.70
2022-11-16T00:19:32.278Z,11.82
2022-11-16T00:21:59.585Z,11.35
2022-11-16T00:24:26.447Z,10.48
2022-11-16T00:26:55.451Z,11.32
2022-11-16T00:29:26.015Z,11.57
2022-11-16T00:31:54.471Z,11.27
2022-11-16T00:34:22.698Z,10.77
2022-11-16T00:36:50.073Z,10.52
2022-11-16T00:39:18.084Z,9.20
2022-11-16T00:41:47.147Z,10.88
2022-11-16T00:44:14.904Z,10.65
2022-11-16T00:46:42.638Z,10.45
2022-11-16T00:49:10.211Z,9.38
2022-11-16T00:51:37.828Z,9.50
2022-11-16T00:54:07.260Z,10.88
2022-11-16T00:56:36.845Z,9.88
2022-11-16T00:59:05.268Z,10.00
2022-11-16T01:01:33.168Z,10.65
2022-11-16T01:04:00.128Z,9.43
2022-11-16T01:06:27.164Z,9.95
2022-11-16T01:08:54.025Z,9.93
2022-11-16T01:11:42.522Z,10.50
2022-11-16T01:14:10.062Z,9.88
2022-11-16T01:16:37.156Z,10.32
2022-11-16T01:19:04.925Z,9.07
2022-11-16T01:21:33.438Z,8.98
2022-11-16T01:24:00.888Z,9.52
2022-11-16T01:26:27.953Z,9.82
2022-11-16T01:28:55.098Z,9.48
2022-11-16T01:31:22.348Z,9.48
2022-11-16T01:33:51.478Z,9.10
2022-11-16T01:36:22.626Z,9.98
2022-11-16T01:38:50.612Z,8.85
2022-11-16T01:41:23.957Z,9.75
2022-11-16T01:44:05.880Z,9.30
2022-11-16T01:46:41.888Z,9.00
2022-11-16T01:49:17.656Z,9.57
2022-11-16T01:51:56.591Z,9.90
2022-11-16T01:54:26.038Z,9.55
2022-11-16T01:57:02.358Z,10.30
2022-11-16T01:59:36.365Z,9.82
2022-11-16T02:02:04.922Z,10.73
2022-11-16T02:04:32.999Z,10.20
2022-11-16T02:07:53.311Z,9.77
2022-11-16T02:11:04.580Z,9.30
2022-11-16T02:14:21.501Z,9.88
2022-11-16T02:17:16.724Z,10.20
2022-11-16T02:20:40.019Z,10.85
2022-11-16T02:23:28.514Z,10.90
2022-11-16T02:26:23.322Z,10.55
2022-11-16T02:29:50.131Z,10.23
2022-11-16T02:32:35.065Z,10.05
2022-11-16T02:35:23.849Z,10.20
2022-11-16T02:38:00.030Z,9.40
2022-11-16T02:40:32.976Z,10.23
2022-11-16T02:43:08.317Z,10.25
2022-11-16T02:45:47.408Z,10.15
2022-11-16T02:48:35.701Z,10.18
2022-11-16T02:51:06.445Z,10.13
2022-11-16T02:53:50.524Z,10.80
2022-11-16T02:56:19.066Z,10.77
2022-11-16T02:58:47.961Z,10.45
2022-11-16T03:01:37.063Z,10.95
2022-11-16T03:04:18.564Z,10.25
2022-11-16T03:06:51.155Z,9.85
2022-11-16T03:09:30.756Z,10.73
2022-11-16T03:12:02.940Z,9.77
2022-11-16T03:14:48.687Z,9.77
2022-11-16T03:17:31.608Z,8.93
2022-11-16T03:20:09.714Z,8.85
2022-11-16T03:22:48.059Z,9.82
2022-11-16T03:25:20.305Z,9.05
2022-11-16T03:28:18.600Z,8.05
2022-11-16T03:31:13.860Z,9.60
2022-11-16T03:33:53.930Z,8.88
2022-11-16T03:36:33.540Z,8.48
2022-11-16T03:39:10.236Z,9.07
2022-11-16T03:41:43.530Z,9.45
2022-11-16T03:44:14.435Z,8.23
2022-11-16T03:46:44.210Z,7.93
2022-11-16T03:49:12.969Z,8.05
2022-11-16T03:51:40.909Z,7.18
2022-11-16T03:54:07.854Z,7.22
2022-11-16T03:56:35.898Z,7.70
2022-11-16T03:59:03.541Z,7.93
2022-11-16T04:01:31.293Z,7.07
2022-11-16T04:03:59.179Z,6.80
2022-11-16T04:06:44.721Z,7.25
2022-11-16T04:09:30.256Z,7.25
2022-11-16T04:12:15.772Z,10.32
2022-11-16T04:15:01.997Z,8.43
2022-11-16T04:17:49.455Z,6.82
2022-11-16T04:20:34.973Z,6.90
2022-11-16T04:23:33.311Z,7.30
2022-11-16T04:26:02.310Z,7.22
2022-11-16T04:28:35.239Z,7.07
2022-11-16T04:31:24.459Z,7.93
2022-11-16T04:34:17.253Z,7.43
2022-11-16T04:37:07.631Z,6.53
2022-11-16T04:39:35.155Z,6.63
2022-11-16T04:42:15.484Z,7.22
2022-11-16T04:45:02.986Z,7.45
2022-11-16T04:47:36.531Z,6.57
2022-11-16T04:50:04.851Z,6.45
2022-11-16T04:52:32.260Z,6.43
2022-11-16T04:54:59.748Z,6.22
2022-11-16T04:57:28.056Z,6.43
2022-11-16T04:59:55.803Z,6.97
2022-11-16T05:02:22.980Z,6.03
2022-11-16T05:04:54.365Z,6.38
2022-11-16T05:07:22.807Z,6.38
2022-11-16T05:09:51.524Z,6.30
2022-11-16T05:12:22.896Z,7.13
2022-11-16T05:14:57.357Z,6.15
2022-11-16T05:17:27.775Z,6.28
2022-11-16T05:20:15.665Z,5.57
2022-11-16T05:22:58.720Z,5.45
2022-11-16T05:25:37.050Z,5.35
2022-11-16T05:28:07.294Z,5.60
2022-11-16T05:30:38.264Z,5.32
2022-11-16T05:33:05.329Z,5.00
2022-11-16T05:35:36.485Z,5.75
2022-11-16T05:38:03.423Z,5.75
2022-11-16T05:40:34.274Z,6.25
2022-11-16T05:43:01.706Z,5.72
2022-11-16T05:45:32.788Z,5.97
2022-11-16T05:48:01.192Z,5.63
2022-11-16T05:50:28.473Z,5.63
2022-11-16T05:53:09.003Z,5.68
2022-11-16T05:55:36.513Z,6.10
2022-11-16T05:58:03.480Z,6.18
2022-11-16T06:00:30.454Z,6.07
2022-11-16T06:02:59.171Z,5.43
2022-11-16T06:05:29.745Z,5.32
2022-11-16T06:07:58.252Z,5.95
2022-11-16T06:10:25.668Z,6.07
2022-11-16T06:12:53.689Z,5.55
2022-11-16T06:15:20.671Z,5.63
2022-11-16T06:17:48.082Z,5.63
2022-11-16T06:20:16.578Z,6.35
2022-11-16T06:22:44.723Z,6.55
2022-11-16T06:25:38.772Z,5.03
2022-11-16T06:28:08.087Z,5.68
2022-11-16T06:30:38.305Z,6.00
2022-11-16T06:33:06.326Z,5.45
2022-11-16T06:35:33.429Z,5.72
2022-11-16T06:38:00.935Z,6.38
2022-11-16T06:40:28.706Z,5.43
2022-11-16T06:42:57.217Z,5.65
2022-11-16T06:45:24.988Z,6.05
2022-11-16T06:47:55.289Z,5.85
2022-11-16T06:50:22.521Z,6.32
2022-11-16T06:53:00.849Z,5.85
2022-11-16T06:55:29.955Z,5.72
2022-11-16T06:57:56.966Z,6.05
2022-11-16T07:00:24.250Z,6.10
2022-11-16T07:02:51.216Z,5.80
2022-11-16T07:05:19.383Z,6.10
2022-11-16T07:07:47.685Z,6.10
2022-11-16T07:10:14.797Z,7.22
2022-11-16T07:12:42.843Z,7.13
2022-11-16T07:15:10.846Z,6.78
2022-11-16T07:17:41.372Z,6.25
2022-11-16T07:20:19.102Z,5.88
2022-11-16T07:22:46.047Z,6.25
2022-11-16T07:25:15.704Z,6.20
2022-11-16T07:27:43.094Z,6.32
2022-11-16T07:30:12.226Z,6.10
2022-11-16T07:33:04.454Z,6.30
2022-11-16T07:38:18.241Z,5.40
2022-11-16T07:40:46.477Z,6.22
2022-11-16T07:43:16.596Z,5.30
2022-11-16T07:46:44.676Z,5.45
2022-11-16T07:48:54.227Z,5.72
2022-11-16T07:51:46.608Z,5.63
2022-11-16T07:54:30.834Z,5.88
2022-11-16T07:56:58.159Z,5.60
2022-11-16T07:59:25.208Z,5.30
2022-11-16T08:01:52.814Z,5.13
2022-11-16T08:04:20.032Z,5.38
2022-11-16T08:06:51.552Z,5.97
2022-11-16T08:09:19.821Z,5.43
2022-11-16T08:11:47.721Z,5.90
2022-11-16T08:14:15.654Z,6.15
2022-11-16T08:16:43.368Z,5.80
2022-11-16T08:19:13.779Z,6.38
2022-11-16T08:21:40.935Z,5.88
2022-11-16T08:24:08.533Z,5.97
2022-11-16T08:26:39.299Z,5.50
2022-11-16T08:29:11.524Z,5.55
2022-11-16T08:31:41.056Z,5.97
2022-11-16T08:34:17.941Z,6.55
2022-11-16T08:36:49.405Z,5.30
2022-11-16T08:39:18.740Z,6.25
2022-11-16T08:41:45.858Z,5.95
2022-11-16T08:44:15.647Z,6.15
2022-11-16T08:46:46.068Z,5.97
2022-11-16T08:49:35.711Z,5.82
2022-11-16T08:52:02.936Z,5.65
2022-11-16T08:54:31.448Z,5.47
2022-11-16T08:56:59.422Z,5.93
2022-11-16T08:59:27.877Z,6.07
2022-11-16T09:01:59.471Z,6.40
2022-11-16T09:04:26.518Z,7.53
2022-11-16T09:06:54.831Z,6.93
2022-11-16T09:09:21.996Z,6.40
2022-11-16T09:11:51.947Z,6.63
2022-11-16T09:14:18.983Z,6.47
2022-11-16T09:16:46.064Z,5.95
2022-11-16T09:19:13.148Z,6.15
2022-11-16T09:21:40.154Z,6.43
2022-11-16T09:24:07.309Z,6.45
2022-11-16T09:26:34.328Z,6.00
2022-11-16T09:29:03.211Z,6.40
2022-11-16T09:31:34.721Z,6.80
2022-11-16T09:34:02.823Z,5.55
2022-11-16T09:36:30.545Z,6.05
2022-11-16T09:39:30.012Z,5.53
2022-11-16T09:42:29.603Z,5.80
2022-11-16T09:45:18.319Z,5.32
2022-11-16T09:47:51.739Z,4.95
2022-11-16T09:50:49.556Z,5.35
2022-11-16T09:53:16.457Z,5.30
2022-11-16T09:55:54.173Z,4.97
2022-11-16T09:58:48.124Z,6.10
2022-11-16T10:01:29.865Z,5.93
2022-11-16T10:04:37.054Z,4.90
2022-11-16T10:07:19.736Z,5.18
2022-11-16T10:09:47.782Z,4.47
2022-11-16T10:12:50.958Z,5.55
2022-11-16T10:15:47.399Z,5.45
2022-11-16T10:18:29.697Z,5.63
2022-11-16T10:21:30.266Z,4.90
2022-11-16T10:24:25.934Z,4.25
2022-11-16T10:27:32.797Z,4.88
2022-11-16T10:30:16.872Z,4.70
2022-11-16T10:33:09.679Z,4.97
2022-11-16T10:35:51.979Z,4.78
2022-11-16T10:38:30.282Z,4.65
2022-11-16T10:41:21.445Z,4.07
2022-11-16T10:43:49.572Z,4.30
2022-11-16T10:46:33.873Z,3.88
2022-11-16T10:49:36.433Z,3.75
2022-11-16T10:52:03.617Z,3.72
2022-11-16T10:54:30.642Z,3.17
2022-11-16T10:57:14.229Z,3.47
2022-11-16T10:59:48.553Z,3.55
2022-11-16T11:02:35.982Z,3.47
2022-11-16T11:05:20.830Z,3.65
2022-11-16T11:08:04.194Z,3.00
2022-11-16T11:10:40.560Z,3.20
2022-11-16T11:14:27.748Z,2.40
2022-11-16T11:16:54.825Z,2.95
2022-11-16T11:19:28.093Z,3.20
2022-11-16T11:22:01.978Z,3.33
2022-11-16T11:24:43.817Z,3.22
2022-11-16T11:27:17.465Z,2.53
2022-11-16T11:29:52.340Z,2.38
2022-11-16T11:32:24.103Z,2.10
2022-11-16T11:35:06.684Z,2.53
2022-11-16T11:38:07.652Z,2.67
2022-11-16T11:40:36.346Z,2.20
2022-11-16T11:43:21.612Z,2.15
2022-11-16T11:46:47.377Z,2.72
2022-11-16T11:49:22.512Z,2.03
2022-11-16T11:51:55.442Z,2.45
2022-11-16T11:54:46.688Z,2.38
2022-11-16T11:57:22.222Z,2.08
2022-11-16T11:59:53.834Z,2.50
2022-11-16T12:03:06.491Z,2.47
2022-11-16T12:06:27.952Z,2.00
2022-11-16T12:09:17.324Z,2.45
2022-11-16T12:12:03.421Z,2.10
2022-11-16T12:15:23.087Z,2.40
2022-11-16T12:18:08.079Z,2.83
2022-11-16T12:21:26.241Z,3.13
2022-11-16T12:24:20.948Z,2.60
2022-11-16T12:27:06.384Z,3.10
2022-11-16T12:36:04.699Z,2.00
2022-11-16T12:39:08.302Z,2.55
2022-11-16T12:42:02.108Z,2.83
2022-11-16T12:45:05.613Z,2.72
2022-11-16T12:48:10.133Z,2.47
2022-11-16T12:50:52.728Z,2.60
2022-11-16T12:53:19.669Z,3.28
2022-11-16T12:56:14.477Z,2.72
2022-11-16T12:59:38.128Z,2.78
2022-11-16T13:02:08.499Z,2.55
2022-11-16T13:04:47.332Z,2.83
2022-11-16T13:07:27.427Z,2.92
2022-11-16T13:10:16.497Z,2.70
2022-11-16T13:12:52.717Z,2.65
2022-11-16T13:15:34.779Z,3.42
2022-11-16T13:18:07.712Z,2.83
2022-11-16T13:21:05.036Z,2.58
2022-11-16T13:23:32.428Z,3.42
2022-11-16T13:26:15.641Z,3.20
2022-11-16T13:29:22.916Z,3.03
2022-11-16T13:32:22.215Z,3.63
2022-11-16T13:34:51.538Z,3.63
2022-11-16T13:37:40.131Z,3.63
2022-11-16T13:40:07.101Z,4.43
2022-11-16T13:43:01.102Z,3.63
2022-11-16T13:45:36.010Z,4.05
2022-11-16T13:48:17.453Z,4.22
2022-11-16T13:50:55.628Z,4.53
2022-11-16T13:56:29.068Z,4.60
2022-11-16T13:58:58.772Z,4.90
2022-11-16T14:01:32.744Z,4.70
2022-11-16T14:04:41.279Z,5.03
2022-11-16T14:07:32.449Z,4.45
2022-11-16T14:10:01.178Z,4.15
2022-11-16T14:12:51.482Z,4.50
2022-11-16T14:15:30.365Z,4.38
2022-11-16T14:18:08.645Z,4.53
2022-11-16T14:20:45.337Z,5.95
2022-11-16T14:23:18.556Z,4.90
2022-11-16T14:26:02.980Z,6.00
2022-11-16T14:29:03.914Z,6.20
2022-11-16T14:31:49.177Z,5.47
2022-11-16T14:34:22.393Z,6.22
2022-11-16T14:36:50.624Z,5.75
2022-11-16T14:39:44.517Z,5.70
2022-11-16T14:42:38.150Z,9.93
2022-11-16T14:45:27.293Z,10.77
2022-11-16T14:48:14.431Z,9.27
2022-11-16T14:50:48.482Z,12.25
2022-11-16T14:53:19.690Z,20.52
2022-11-16T14:55:48.027Z,14.65
2022-11-16T14:58:23.502Z,17.45
2022-11-16T15:01:00.595Z,15.98
2022-11-16T15:03:39.682Z,13.80
2022-11-16T15:06:08.000Z,12.40
2022-11-16T15:08:45.415Z,10.25
2022-11-16T15:11:49.853Z,11.27
2022-11-16T15:14:26.569Z,10.15
2022-11-16T15:16:57.069Z,10.75
2022-11-16T15:19:25.091Z,9.63
2022-11-16T15:22:01.447Z,10.23
2022-11-16T15:24:33.214Z,9.70
2022-11-16T15:27:08.870Z,10.02
2022-11-16T15:29:36.270Z,9.60
2022-11-16T15:32:03.614Z,9.88
2022-11-16T15:34:32.159Z,9.30
2022-11-16T15:36:59.095Z,10.05
2022-11-16T15:39:34.315Z,8.50
2022-11-16T15:42:04.015Z,9.50
2022-11-16T15:44:33.372Z,9.02
2022-11-16T15:47:03.350Z,9.13
2022-11-16T15:49:38.851Z,10.10
2022-11-16T15:52:06.516Z,9.57
2022-11-16T15:54:58.795Z,9.38
2022-11-16T15:57:25.835Z,9.80
2022-11-16T15:59:56.751Z,13.00
2022-11-16T16:02:31.288Z,11.27
2022-11-16T16:04:58.353Z,10.77
2022-11-16T16:07:49.726Z,9.95
2022-11-16T16:10:19.473Z,9.65
2022-11-16T16:13:01.224Z,9.52
2022-11-16T16:15:36.521Z,9.63
2022-11-16T16:18:36.626Z,10.27
2022-11-16T16:21:03.885Z,9.60
2022-11-16T16:23:30.822Z,8.55
2022-11-16T16:26:03.108Z,9.85
2022-11-16T16:28:29.996Z,9.00
2022-11-16T16:31:02.609Z,9.77
2022-11-16T16:33:30.523Z,9.45
2022-11-16T16:35:57.453Z,9.88
2022-11-16T16:38:24.386Z,11.00
2022-11-16T16:40:51.287Z,10.38
2022-11-16T16:43:18.320Z,10.32
2022-11-16T16:45:45.512Z,10.82
2022-11-16T16:48:12.761Z,10.32
2022-11-16T16:50:40.020Z,11.30
2022-11-16T16:53:07.437Z,10.43
2022-11-16T16:55:37.662Z,10.25
2022-11-16T16:58:05.523Z,10.25
2022-11-16T17:00:32.891Z,9.15
2022-11-16T17:02:59.767Z,9.48
2022-11-16T17:05:26.699Z,10.98
2022-11-16T17:07:56.739Z,10.32
2022-11-16T17:10:24.262Z,10.23
2022-11-16T17:12:58.028Z,9.80
2022-11-16T17:15:25.435Z,9.52
2022-11-16T17:17:52.994Z,8.98
2022-11-16T17:20:23.118Z,9.50
2022-11-16T17:22:50.195Z,9.35
2022-11-16T17:25:17.127Z,9.27
2022-11-16T17:27:44.006Z,9.20
2022-11-16T17:30:12.076Z,9.27
2022-11-16T17:32:39.016Z,8.32
2022-11-16T17:35:06.318Z,8.52
2022-11-16T17:37:33.224Z,9.10
2022-11-16T17:40:00.149Z,10.43
2022-11-16T17:42:27.063Z,9.63
2022-11-16T17:44:55.129Z,9.07
2022-11-16T17:47:22.267Z,9.65
2022-11-16T17:49:49.389Z,9.60
2022-11-16T17:52:16.789Z,9.23
2022-11-16T17:54:43.780Z,10.60
2022-11-16T17:57:10.826Z,11.77
2022-11-16T17:59:37.781Z,11.35
2022-11-16T18:02:04.821Z,11.07
2022-11-16T18:04:31.734Z,11.40
2022-11-16T18:07:00.718Z,11.52
2022-11-16T18:09:27.992Z,12.18
2022-11-16T18:11:55.169Z,11.10
2022-11-16T18:14:22.924Z,11.20
2022-11-16T18:16:49.897Z,10.98
2022-11-16T18:19:19.255Z,9.93
2022-11-16T18:21:48.824Z,10.68
2022-11-16T18:24:15.947Z,9.73
2022-11-16T18:26:43.350Z,8.93
2022-11-16T18:29:12.845Z,9.60
2022-11-16T18:31:40.415Z,8.50
2022-11-16T18:34:07.562Z,7.63
2022-11-16T18:36:34.556Z,6.65
2022-11-16T18:39:01.668Z,5.93
2022-11-16T18:41:30.204Z,5.10
2022-11-16T18:44:02.179Z,5.43
2022-11-16T18:46:32.699Z,4.70
2022-11-16T18:49:00.582Z,4.00
2022-11-16T18:51:29.184Z,4.05
2022-11-16T18:53:56.850Z,3.92
2022-11-16T18:56:25.601Z,5.00
2022-11-16T18:58:53.568Z,4.75
2022-11-16T19:01:27.569Z,3.83
2022-11-16T19:03:56.603Z,3.90
2022-11-16T19:06:24.765Z,4.28
2022-11-16T19:08:59.456Z,3.60
2022-11-16T19:11:28.760Z,4.05
2022-11-16T19:14:00.869Z,3.70
2022-11-16T19:16:28.548Z,3.40
2022-11-16T19:18:56.110Z,3.45
2022-11-16T19:21:24.151Z,4.03
2022-11-16T19:23:54.518Z,3.75
2022-11-16T19:26:26.083Z,3.72
2022-11-16T19:28:54.610Z,3.83
2022-11-16T19:31:29.173Z,3.35
2022-11-16T19:34:07.959Z,3.67
2022-11-16T19:36:37.215Z,3.20
2022-11-16T19:39:05.982Z,3.78
2022-11-16T19:41:33.466Z,2.95
2022-11-16T19:44:02.016Z,3.30
2022-11-16T19:46:32.676Z,2.92
2022-11-16T19:49:00.910Z,3.42
2022-11-16T19:51:33.885Z,3.15
2022-11-16T19:54:02.801Z,3.30
2022-11-16T19:56:30.594Z,3.50
2022-11-16T19:58:58.096Z,3.03
2022-11-16T20:01:29.376Z,3.30
2022-11-16T20:04:03.500Z,2.95
2022-11-16T20:06:38.850Z,2.90
2022-11-16T20:09:28.385Z,3.20
2022-11-16T20:11:56.840Z,2.80
2022-11-16T20:14:24.125Z,2.78
2022-11-16T20:16:51.676Z,2.83
2022-11-16T20:19:20.633Z,2.95
2022-11-16T20:21:48.160Z,3.25
2022-11-16T20:24:18.086Z,2.90
2022-11-16T20:26:50.740Z,3.15
2022-11-16T20:29:19.733Z,2.88
2022-11-16T20:31:47.525Z,3.38
2022-11-16T20:34:17.662Z,2.90
2022-11-16T20:36:47.360Z,3.83
2022-11-16T20:39:20.303Z,3.13
2022-11-16T20:41:48.380Z,2.92
2022-11-16T20:44:22.259Z,3.33
2022-11-16T20:46:52.755Z,3.28
2022-11-16T20:49:20.667Z,2.97
2022-11-16T20:51:48.432Z,3.78
2022-11-16T20:54:15.737Z,3.28
2022-11-16T20:56:44.490Z,3.30
2022-11-16T20:59:11.842Z,2.97
2022-11-16T21:01:39.164Z,3.30
2022-11-16T21:04:06.647Z,3.28
2022-11-16T21:06:34.194Z,2.83
2022-11-16T21:09:01.751Z,3.35
2022-11-16T21:11:51.790Z,3.35
2022-11-16T21:14:20.300Z,3.17
2022-11-16T21:16:47.528Z,3.25
2022-11-16T21:19:14.893Z,3.25
2022-11-16T21:21:41.982Z,3.40
2022-11-16T21:24:10.102Z,3.35
2022-11-16T21:26:37.821Z,2.97
2022-11-16T21:29:05.331Z,3.10
2022-11-16T21:31:36.454Z,2.90
2022-11-16T21:34:03.605Z,2.97
2022-11-16T21:36:32.341Z,3.38
2022-11-16T21:38:59.774Z,3.13
2022-11-16T21:41:27.669Z,3.03
2022-11-16T21:43:55.083Z,3.50
2022-11-16T21:46:26.829Z,3.15
2022-11-16T21:48:56.241Z,3.30
2022-11-16T21:51:27.298Z,3.60
2022-11-16T21:53:55.342Z,3.20
2022-11-16T21:56:26.236Z,3.00
2022-11-16T21:58:54.264Z,3.53
2022-11-16T22:01:23.010Z,3.08
2022-11-16T22:04:10.606Z,4.20
2022-11-16T22:06:56.545Z,3.40
2022-11-16T22:09:23.712Z,3.45
2022-11-16T22:11:50.731Z,3.17
2022-11-16T22:14:17.852Z,3.83
2022-11-16T22:16:45.189Z,3.50
2022-11-16T22:19:12.227Z,3.60
2022-11-16T22:21:39.134Z,3.50
2022-11-16T22:24:06.791Z,3.42
2022-11-16T22:26:33.744Z,3.72
2022-11-16T22:29:01.056Z,3.90
2022-11-16T22:31:27.967Z,3.80
2022-11-16T22:33:54.973Z,3.42
2022-11-16T22:36:21.976Z,3.53
2022-11-16T22:38:48.956Z,3.63
2022-11-16T22:41:15.866Z,3.67
2022-11-16T22:43:42.818Z,4.15
2022-11-16T22:46:10.981Z,3.90
2022-11-16T22:48:39.801Z,3.67
2022-11-16T22:51:20.102Z,3.60
2022-11-16T22:53:47.564Z,3.78
2022-11-16T22:56:14.643Z,3.42
2022-11-16T22:58:41.658Z,4.05
2022-11-16T23:01:09.604Z,3.67
2022-11-16T23:03:37.773Z,3.45
2022-11-16T23:06:06.335Z,4.20
2022-11-16T23:08:34.906Z,3.10
2022-11-16T23:11:28.044Z,4.10
2022-11-16T23:14:14.469Z,3.97
2022-11-16T23:16:44.067Z,3.30
2022-11-16T23:19:32.920Z,4.25
2022-11-16T23:22:18.990Z,3.85
2022-11-16T23:25:05.042Z,4.07
2022-11-16T23:27:55.108Z,4.32
2022-11-16T23:30:22.829Z,3.70
2022-11-16T23:32:49.810Z,3.70
2022-11-16T23:35:17.432Z,3.72
2022-11-16T23:38:02.411Z,3.75
2022-11-16T23:40:47.469Z,3.10
2022-11-16T23:43:33.119Z,3.83
2022-11-16T23:46:00.129Z,3.58
2022-11-16T23:48:27.000Z,3.50
2022-11-16T23:50:53.878Z,3.45
2022-11-16T23:53:20.700Z,3.47
2022-11-16T23:55:47.548Z,4.00
2022-11-16T23:58:15.460Z,3.47
